createdAt,value
2022-11-18T00:01:51.200Z,7.85
2022-11-18T00:04:48.311Z,7.83
2022-11-18T00:07:45.275Z,7.89
2022-11-18T00:10:42.256Z,7.85
2022-11-18T00:13:57.909Z,7.90
2022-11-18T00:17:05.277Z,8.05
2022-11-18T00:20:02.250Z,7.93
2022-11-18T00:23:00.066Z,7.78
2022-11-18T00:26:02.229Z,7.75
2022-11-18T00:28:59.157Z,7.75
2022-11-18T00:31:56.533Z,7.88
2022-11-18T00:34:53.341Z,7.79
2022-11-18T00:37:50.404Z,7.91
2022-11-18T00:40:47.018Z,7.91
2022-11-18T00:43:44.650Z,7.75
2022-11-18T00:46:42.491Z,7.84
2022-11-18T00:49:39.078Z,7.93
2022-11-18T00:52:36.630Z,7.97
2022-11-18T00:55:34.187Z,7.85
2022-11-18T00:58:31.397Z,7.77
2022-11-18T01:01:28.453Z,7.83
2022-11-18T01:04:25.361Z,7.76
2022-11-18T01:07:22.071Z,7.91
2022-11-18T01:10:19.628Z,7.93
2022-11-18T01:13:21.086Z,7.75
2022-11-18T01:16:19.959Z,7.68
2022-11-18T01:19:18.658Z,7.67
2022-11-18T01:22:16.295Z,7.78
2022-11-18T01:25:13.332Z,7.77
2022-11-18T01:28:10.555Z,7.74
2022-11-18T01:31:08.947Z,7.81
2022-11-18T01:34:06.329Z,7.67
2022-11-18T01:37:03.504Z,7.70
2022-11-18T01:40:00.583Z,7.70
2022-11-18T01:42:57.332Z,7.76
2022-11-18T01:45:54.305Z,7.70
2022-11-18T01:48:54.740Z,7.76
2022-11-18T01:51:54.770Z,7.66
2022-11-18T01:54:55.535Z,7.63
2022-11-18T01:57:53.020Z,7.63
2022-11-18T02:00:50.168Z,7.58
2022-11-18T02:03:47.310Z,7.75
2022-11-18T02:06:44.559Z,7.63
2022-11-18T02:09:41.400Z,7.59
2022-11-18T02:12:38.163Z,7.62
2022-11-18T02:15:35.201Z,7.56
2022-11-18T02:18:51.371Z,7.63
2022-11-18T02:22:25.505Z,7.77
2022-11-18T02:25:22.595Z,7.46
2022-11-18T02:28:29.959Z,7.58
2022-11-18T02:31:27.327Z,7.49
2022-11-18T02:34:48.985Z,7.35
2022-11-18T02:37:54.795Z,7.44
2022-11-18T02:40:55.445Z,7.38
2022-11-18T02:43:57.058Z,7.19
2022-11-18T02:46:56.766Z,7.27
2022-11-18T02:49:56.866Z,7.19
2022-11-18T02:52:57.075Z,7.16
2022-11-18T02:55:54.048Z,7.11
2022-11-18T02:58:51.599Z,7.07
2022-11-18T03:01:48.592Z,7.17
2022-11-18T03:04:47.300Z,7.31
2022-11-18T03:07:44.615Z,7.45
2022-11-18T03:10:45.713Z,7.51
2022-11-18T03:14:02.820Z,7.16
2022-11-18T03:17:24.861Z,7.25
2022-11-18T03:20:47.569Z,7.21
2022-11-18T03:23:49.965Z,7.38
2022-11-18T03:26:52.703Z,7.24
2022-11-18T03:29:53.571Z,7.19
2022-11-18T03:33:02.954Z,7.18
2022-11-18T03:36:00.527Z,7.38
2022-11-18T03:38:58.721Z,7.45
2022-11-18T03:41:57.876Z,7.30
2022-11-18T03:44:59.327Z,7.37
2022-11-18T03:48:00.246Z,7.30
2022-11-18T03:51:02.703Z,7.30
2022-11-18T03:54:02.818Z,7.31
2022-11-18T03:57:09.531Z,7.27
2022-11-18T04:00:08.136Z,7.34
2022-11-18T04:03:05.367Z,7.38
2022-11-18T04:06:28.477Z,7.39
2022-11-18T04:09:28.910Z,7.46
2022-11-18T04:12:28.123Z,7.58
2022-11-18T04:15:25.569Z,7.54
2022-11-18T04:18:22.563Z,7.25
2022-11-18T04:21:19.403Z,7.14
2022-11-18T04:24:16.330Z,7.04
2022-11-18T04:27:13.614Z,7.24
2022-11-18T04:30:11.177Z,7.15
2022-11-18T04:33:08.593Z,7.09
2022-11-18T04:36:06.040Z,7.16
2022-11-18T04:39:03.725Z,7.13
2022-11-18T04:42:00.728Z,7.16
2022-11-18T04:44:57.904Z,7.12
2022-11-18T04:48:00.272Z,7.22
2022-11-18T04:51:06.719Z,7.11
2022-11-18T04:54:03.898Z,7.07
2022-11-18T04:57:01.577Z,7.20
2022-11-18T04:59:58.520Z,7.18
2022-11-18T05:02:55.386Z,7.29
2022-11-18T05:05:52.469Z,7.14
2022-11-18T05:08:49.430Z,7.11
2022-11-18T05:12:05.063Z,7.09
2022-11-18T05:15:02.203Z,6.91
2022-11-18T05:18:00.393Z,6.92
2022-11-18T05:20:57.428Z,6.91
2022-11-18T05:23:54.610Z,6.89
2022-11-18T05:26:52.254Z,6.83
2022-11-18T05:29:49.121Z,6.88
2022-11-18T05:32:46.506Z,6.78
2022-11-18T05:35:43.604Z,6.80
2022-11-18T05:38:40.622Z,6.94
2022-11-18T05:41:56.113Z,6.83
2022-11-18T05:44:58.155Z,6.82
2022-11-18T05:48:03.083Z,6.76
2022-11-18T05:51:00.332Z,6.78
2022-11-18T05:54:00.316Z,6.82
2022-11-18T05:56:57.687Z,6.73
2022-11-18T05:59:54.628Z,6.63
2022-11-18T06:02:51.259Z,6.72
2022-11-18T06:05:49.166Z,6.59
2022-11-18T06:08:51.130Z,6.66
2022-11-18T06:11:50.749Z,6.65
2022-11-18T06:14:52.819Z,6.63
2022-11-18T06:17:55.895Z,6.66
2022-11-18T06:20:54.970Z,6.63
2022-11-18T06:23:52.324Z,6.77
2022-11-18T06:26:49.325Z,6.73
2022-11-18T06:29:46.284Z,6.63
2022-11-18T06:32:43.786Z,6.51
2022-11-18T06:35:42.796Z,6.70
2022-11-18T06:38:39.995Z,6.77
2022-11-18T06:41:37.847Z,6.77
2022-11-18T06:44:34.850Z,6.82
2022-11-18T06:47:31.597Z,6.82
2022-11-18T06:50:28.795Z,6.33
2022-11-18T06:53:25.634Z,6.26
2022-11-18T06:56:23.055Z,6.39
2022-11-18T06:59:24.061Z,6.25
2022-11-18T07:02:21.747Z,6.25
2022-11-18T07:05:18.957Z,6.24
2022-11-18T07:08:16.240Z,6.23
2022-11-18T07:11:15.200Z,6.35
2022-11-18T07:14:13.049Z,6.38
2022-11-18T07:17:10.586Z,6.46
2022-11-18T07:20:08.154Z,6.55
2022-11-18T07:23:05.394Z,6.75
2022-11-18T07:26:02.915Z,6.84
2022-11-18T07:29:00.282Z,6.61
2022-11-18T07:31:57.648Z,6.48
2022-11-18T07:34:54.870Z,6.55
2022-11-18T07:37:51.633Z,6.59
2022-11-18T07:40:48.484Z,6.65
2022-11-18T07:43:46.119Z,6.56
2022-11-18T07:46:43.878Z,6.50
2022-11-18T07:49:40.725Z,6.45
2022-11-18T07:52:37.690Z,6.37
2022-11-18T07:55:34.445Z,6.43
2022-11-18T07:58:31.400Z,6.41
2022-11-18T08:01:29.840Z,6.48
2022-11-18T08:04:26.573Z,6.55
2022-11-18T08:07:23.382Z,6.65
2022-11-18T08:10:20.978Z,6.74
2022-11-18T08:13:18.634Z,6.51
2022-11-18T08:16:17.978Z,6.53
2022-11-18T08:19:16.229Z,6.57
2022-11-18T08:22:13.588Z,6.60
2022-11-18T08:25:10.511Z,6.66
2022-11-18T08:28:08.270Z,6.78
2022-11-18T08:31:18.798Z,6.86
2022-11-18T08:34:15.449Z,6.76
2022-11-18T08:37:12.862Z,6.58
2022-11-18T08:40:09.843Z,6.52
2022-11-18T08:43:10.841Z,6.50
2022-11-18T08:46:07.677Z,6.63
2022-11-18T08:49:04.622Z,6.44
2022-11-18T08:52:01.478Z,6.24
2022-11-18T08:54:58.764Z,6.21
2022-11-18T08:57:55.382Z,6.28
2022-11-18T09:00:53.030Z,6.11
2022-11-18T09:03:50.914Z,6.18
2022-11-18T09:06:47.885Z,6.02
2022-11-18T09:09:44.860Z,6.00
2022-11-18T09:12:41.804Z,6.00
2022-11-18T09:15:39.062Z,5.94
2022-11-18T09:18:36.825Z,6.03
2022-11-18T09:21:36.842Z,5.98
2022-11-18T09:24:37.396Z,6.07
2022-11-18T09:27:34.769Z,6.07
2022-11-18T09:30:31.395Z,6.12
2022-11-18T09:33:28.762Z,6.17
2022-11-18T09:36:26.254Z,6.05
2022-11-18T09:39:26.664Z,6.20
2022-11-18T09:42:29.575Z,6.09
2022-11-18T09:45:28.778Z,6.08
2022-11-18T09:48:45.353Z,5.92
2022-11-18T09:51:47.319Z,5.75
2022-11-18T09:54:44.527Z,5.76
2022-11-18T09:57:47.713Z,5.71
2022-11-18T10:00:46.296Z,5.70
2022-11-18T10:03:43.836Z,5.76
2022-11-18T10:06:40.597Z,5.94
2022-11-18T10:09:40.110Z,5.89
2022-11-18T10:12:59.402Z,5.94
2022-11-18T10:15:59.325Z,5.67
2022-11-18T10:19:03.877Z,5.72
2022-11-18T10:22:38.415Z,5.67
2022-11-18T10:25:35.775Z,5.72
2022-11-18T10:28:32.682Z,5.45
2022-11-18T10:31:30.183Z,5.34
2022-11-18T10:34:27.986Z,5.39
2022-11-18T10:37:45.276Z,5.27
2022-11-18T10:40:57.940Z,5.46
2022-11-18T10:43:56.112Z,5.51
2022-11-18T10:46:53.502Z,5.56
2022-11-18T10:49:57.994Z,5.56
2022-11-18T10:52:54.792Z,5.46
2022-11-18T10:56:11.650Z,5.25
2022-11-18T10:59:31.641Z,5.32
2022-11-18T11:02:54.605Z,5.33
2022-11-18T11:06:21.223Z,5.29
2022-11-18T11:09:31.266Z,5.39
2022-11-18T11:12:40.414Z,5.58
2022-11-18T11:15:45.300Z,5.57
2022-11-18T11:18:42.787Z,5.43
2022-11-18T11:21:39.465Z,5.30
2022-11-18T11:24:36.936Z,5.33
2022-11-18T11:31:23.936Z,5.57
2022-11-18T11:34:36.823Z,5.37
2022-11-18T11:37:55.080Z,5.40
2022-11-18T11:41:23.122Z,5.39
2022-11-18T11:44:28.584Z,5.29
2022-11-18T11:47:50.064Z,5.00
2022-11-18T11:51:04.307Z,4.96
2022-11-18T11:54:30.001Z,4.94
2022-11-18T11:58:02.496Z,5.06
2022-11-18T12:01:27.259Z,5.24
2022-11-18T12:04:36.991Z,5.06
2022-11-18T12:07:39.377Z,5.38
2022-11-18T12:11:03.991Z,5.47
2022-11-18T12:14:03.995Z,5.28
2022-11-18T12:17:11.972Z,4.99
2022-11-18T12:20:40.064Z,5.05
2022-11-18T12:23:38.005Z,4.96
2022-11-18T12:26:35.206Z,4.79
2022-11-18T12:29:53.326Z,4.69
2022-11-18T12:32:57.287Z,4.47
2022-11-18T12:35:54.935Z,4.67
2022-11-18T12:38:52.585Z,4.96
2022-11-18T12:42:20.821Z,5.17
2022-11-18T12:45:46.016Z,4.88
2022-11-18T12:48:43.364Z,4.74
2022-11-18T12:51:41.503Z,4.79
2022-11-18T12:54:45.390Z,4.68
2022-11-18T12:57:42.782Z,4.62
2022-11-18T13:00:55.096Z,4.49
2022-11-18T13:03:52.923Z,4.58
2022-11-18T13:06:51.150Z,4.68
2022-11-18T13:09:48.899Z,4.33
2022-11-18T13:12:45.861Z,4.51
2022-11-18T13:16:01.467Z,4.79
2022-11-18T13:18:59.191Z,4.67
2022-11-18T13:22:17.427Z,4.36
2022-11-18T13:25:24.947Z,4.27
2022-11-18T13:28:25.754Z,4.15
2022-11-18T13:31:31.822Z,4.20
2022-11-18T13:34:29.684Z,4.40
2022-11-18T13:37:28.747Z,4.34
2022-11-18T13:40:31.493Z,4.17
2022-11-18T13:43:29.033Z,4.10
2022-11-18T13:46:26.067Z,4.05
2022-11-18T13:49:27.810Z,4.00
2022-11-18T13:52:30.648Z,4.16
2022-11-18T13:55:29.325Z,4.38
2022-11-18T13:59:02.740Z,4.60
2022-11-18T14:01:59.309Z,4.50
2022-11-18T14:04:58.319Z,4.41
2022-11-18T14:08:06.439Z,4.34
2022-11-18T14:11:04.316Z,4.55
2022-11-18T14:14:01.589Z,4.35
2022-11-18T14:17:17.402Z,4.15
2022-11-18T14:20:16.585Z,4.11
2022-11-18T14:23:14.282Z,4.25
2022-11-18T14:26:11.876Z,4.09
2022-11-18T14:29:23.099Z,4.04
2022-11-18T14:32:21.657Z,3.92
2022-11-18T14:35:20.149Z,3.83
2022-11-18T14:38:38.290Z,3.61
2022-11-18T14:41:50.000Z,3.76
2022-11-18T14:44:46.841Z,3.88
2022-11-18T14:47:43.898Z,3.87
2022-11-18T14:50:41.115Z,3.97
2022-11-18T14:53:37.568Z,4.09
2022-11-18T14:56:35.010Z,3.94
2022-11-18T14:59:31.972Z,4.04
2022-11-18T15:02:28.967Z,4.00
2022-11-18T15:05:26.105Z,3.92
2022-11-18T15:08:23.212Z,3.81
2022-11-18T15:11:21.165Z,3.90
2022-11-18T15:14:19.357Z,3.95
2022-11-18T15:17:16.713Z,3.96
2022-11-18T15:20:15.180Z,3.72
2022-11-18T15:23:11.809Z,3.69
2022-11-18T15:26:22.605Z,3.57
2022-11-18T15:29:21.544Z,3.56
2022-11-18T15:32:18.890Z,3.68
2022-11-18T15:35:15.884Z,3.67
2022-11-18T15:38:13.106Z,3.50
2022-11-18T15:41:17.269Z,3.53
2022-11-18T15:44:15.047Z,3.63
2022-11-18T15:47:12.014Z,3.40
2022-11-18T15:50:09.141Z,3.46
2022-11-18T15:53:05.717Z,3.41
2022-11-18T15:56:23.998Z,3.35
2022-11-18T15:59:21.326Z,3.10
2022-11-18T16:02:19.052Z,3.00
2022-11-18T16:05:16.090Z,3.25
2022-11-18T16:08:13.093Z,3.40
2022-11-18T16:11:32.760Z,3.46
2022-11-18T16:14:30.169Z,3.42
2022-11-18T16:17:27.038Z,3.34
2022-11-18T16:20:27.338Z,3.44
2022-11-18T16:23:25.408Z,3.44
2022-11-18T16:26:23.196Z,3.04
2022-11-18T16:29:20.981Z,3.22
2022-11-18T16:32:19.175Z,3.37
2022-11-18T16:35:16.237Z,3.34
2022-11-18T16:38:14.486Z,3.36
2022-11-18T16:41:47.278Z,3.29
2022-11-18T16:44:44.985Z,3.32
2022-11-18T16:47:42.226Z,3.34
2022-11-18T16:50:39.310Z,3.27
2022-11-18T16:53:37.072Z,3.38
2022-11-18T16:56:35.076Z,3.25
2022-11-18T16:59:31.918Z,3.24
2022-11-18T17:02:31.589Z,3.17
2022-11-18T17:05:29.052Z,3.06
2022-11-18T17:08:26.143Z,2.94
2022-11-18T17:11:23.060Z,2.98
2022-11-18T17:14:19.973Z,3.00
2022-11-18T17:17:17.134Z,3.03
2022-11-18T17:20:14.283Z,2.99
2022-11-18T17:23:11.179Z,2.85
2022-11-18T17:26:08.622Z,2.74
2022-11-18T17:29:06.001Z,2.78
2022-11-18T17:32:03.152Z,2.77
2022-11-18T17:35:00.246Z,3.09
2022-11-18T17:37:56.990Z,3.20
2022-11-18T17:40:57.691Z,3.48
2022-11-18T17:43:55.036Z,3.48
2022-11-18T17:46:52.245Z,3.24
2022-11-18T17:49:49.255Z,3.16
2022-11-18T17:52:45.876Z,3.10
2022-11-18T17:55:42.915Z,3.13
2022-11-18T17:58:40.718Z,2.95
2022-11-18T18:01:38.024Z,3.00
2022-11-18T18:04:35.281Z,2.85
2022-11-18T18:07:32.114Z,2.78
2022-11-18T18:10:29.149Z,2.78
2022-11-18T18:13:44.874Z,2.88
2022-11-18T18:16:49.467Z,2.74
2022-11-18T18:19:47.016Z,2.89
2022-11-18T18:22:44.049Z,2.85
2022-11-18T18:25:40.981Z,2.81
2022-11-18T18:28:37.983Z,2.64
2022-11-18T18:31:35.583Z,2.60
2022-11-18T18:34:33.130Z,2.63
2022-11-18T18:37:29.890Z,2.76
2022-11-18T18:40:27.299Z,2.53
2022-11-18T18:43:24.025Z,2.53
2022-11-18T18:46:34.633Z,2.54
2022-11-18T18:49:31.916Z,2.53
2022-11-18T18:52:31.520Z,2.60
2022-11-18T18:55:29.191Z,2.61
2022-11-18T18:58:27.028Z,2.95
2022-11-18T19:01:24.349Z,2.97
2022-11-18T19:04:22.284Z,2.91
2022-11-18T19:07:20.072Z,2.71
2022-11-18T19:10:17.427Z,2.95
2022-11-18T19:13:14.816Z,2.94
2022-11-18T19:16:12.349Z,2.87
2022-11-18T19:19:09.769Z,2.84
2022-11-18T19:22:07.408Z,2.75
2022-11-18T19:25:05.165Z,2.54
2022-11-18T19:28:02.164Z,2.59
2022-11-18T19:30:59.898Z,2.54
2022-11-18T19:33:56.948Z,2.59
2022-11-18T19:36:54.361Z,2.72
2022-11-18T19:39:51.072Z,2.56
2022-11-18T19:42:48.350Z,2.65
2022-11-18T19:45:52.328Z,2.76
2022-11-18T19:48:51.149Z,2.97
2022-11-18T19:51:48.351Z,2.75
2022-11-18T19:54:45.155Z,2.71
2022-11-18T19:57:42.436Z,2.60
2022-11-18T20:00:40.026Z,2.50
2022-11-18T20:03:37.192Z,2.28
2022-11-18T20:06:34.731Z,2.27
2022-11-18T20:09:32.454Z,2.24
2022-11-18T20:12:30.448Z,2.07
2022-11-18T20:15:28.244Z,2.39
2022-11-18T20:18:25.407Z,2.45
2022-11-18T20:21:23.632Z,2.32
2022-11-18T20:24:21.244Z,2.42
2022-11-18T20:27:19.024Z,2.29
2022-11-18T20:30:17.648Z,2.33
2022-11-18T20:33:15.332Z,2.33
2022-11-18T20:36:15.164Z,2.14
2022-11-18T20:39:14.778Z,2.24
2022-11-18T20:42:30.766Z,2.28
2022-11-18T20:45:28.027Z,2.31
2022-11-18T20:48:25.105Z,2.43
2022-11-18T20:51:24.071Z,2.31
2022-11-18T20:54:21.736Z,2.19
2022-11-18T20:57:19.649Z,2.26
2022-11-18T21:00:17.744Z,2.14
2022-11-18T21:03:15.470Z,2.12
2022-11-18T21:06:14.443Z,2.13
2022-11-18T21:09:12.148Z,2.19
2022-11-18T21:12:09.607Z,2.15
2022-11-18T21:15:08.186Z,2.05
2022-11-18T21:18:05.159Z,1.97
2022-11-18T21:21:20.849Z,2.06
2022-11-18T21:24:18.230Z,1.99
2022-11-18T21:27:15.641Z,2.11
2022-11-18T21:30:13.511Z,2.11
2022-11-18T21:33:12.781Z,2.26
2022-11-18T21:36:10.730Z,2.14
2022-11-18T21:39:08.420Z,2.12
2022-11-18T21:42:05.369Z,1.95
2022-11-18T21:45:02.033Z,2.03
2022-11-18T21:47:59.299Z,2.13
2022-11-18T21:50:59.174Z,2.09
2022-11-18T21:53:56.363Z,1.95
2022-11-18T21:56:53.797Z,2.10
2022-11-18T21:59:51.444Z,2.01
2022-11-18T22:02:48.081Z,2.00
2022-11-18T22:05:45.312Z,2.05
2022-11-18T22:08:42.345Z,2.22
2022-11-18T22:11:38.927Z,2.06
2022-11-18T22:14:36.262Z,1.92
2022-11-18T22:17:33.202Z,1.93
2022-11-18T22:20:29.928Z,2.01
2022-11-18T22:23:31.203Z,2.02
2022-11-18T22:26:28.581Z,2.05
2022-11-18T22:29:26.415Z,1.98
2022-11-18T22:32:23.356Z,2.04
2022-11-18T22:35:20.386Z,2.11
2022-11-18T22:38:17.136Z,2.08
2022-11-18T22:41:34.720Z,2.07
2022-11-18T22:44:32.143Z,1.88
2022-11-18T22:47:29.247Z,1.79
2022-11-18T22:50:26.469Z,1.71
2022-11-18T22:53:23.380Z,1.87
2022-11-18T22:56:20.296Z,1.87
2022-11-18T22:59:17.769Z,1.86
2022-11-18T23:02:15.876Z,2.06
2022-11-18T23:05:13.443Z,1.84
2022-11-18T23:08:11.705Z,1.95
2022-11-18T23:11:10.829Z,1.92
2022-11-18T23:14:10.330Z,2.25
2022-11-18T23:17:07.147Z,1.85
2022-11-18T23:20:04.463Z,2.13
2022-11-18T23:23:01.129Z,2.12
2022-11-18T23:26:11.595Z,2.09
2022-11-18T23:29:09.969Z,1.98
2022-11-18T23:32:07.330Z,2.00
2022-11-18T23:35:05.645Z,2.00
2022-11-18T23:38:03.319Z,1.88
2022-11-18T23:41:01.508Z,1.65
2022-11-18T23:43:57.901Z,1.81
2022-11-18T23:46:54.844Z,1.66
2022-11-18T23:49:52.605Z,1.70
2022-11-18T23:52:50.084Z,1.80
2022-11-18T23:55:47.096Z,1.69
2022-11-18T23:58:49.018Z,1.75
